createdAt,value
2023-05-12T00:02:03.835Z,101135.78
2023-05-12T00:04:30.657Z,101131.03
2023-05-12T00:06:57.411Z,101126.56
2023-05-12T00:09:24.008Z,101134.53
2023-05-12T00:11:50.740Z,101130.00
2023-05-12T00:14:17.408Z,101121.78
2023-05-12T00:16:44.152Z,101125.81
2023-05-12T00:19:10.862Z,101131.53
2023-05-12T00:21:37.541Z,101135.28
2023-05-12T00:24:04.372Z,101130.53
2023-05-12T00:26:30.994Z,101134.31
2023-05-12T00:28:57.597Z,101127.53
2023-05-12T00:31:24.311Z,101136.47
2023-05-12T00:33:50.978Z,101135.78
2023-05-12T00:36:17.612Z,101132.19
2023-05-12T00:38:44.188Z,101134.00
2023-05-12T00:41:10.799Z,101133.31
2023-05-12T00:43:38.260Z,101136.16
2023-05-12T00:46:05.615Z,101134.44
2023-05-12T00:48:33.133Z,101139.88
2023-05-12T00:51:00.824Z,101133.03
2023-05-12T00:53:34.973Z,101136.50
2023-05-12T00:56:08.161Z,101133.91
2023-05-12T00:58:35.031Z,101136.94
2023-05-12T01:01:01.714Z,101135.94
2023-05-12T01:03:29.260Z,101135.31
2023-05-12T01:06:01.096Z,101128.25
2023-05-12T01:08:28.572Z,101135.69
2023-05-12T01:10:55.171Z,101136.50
2023-05-12T01:13:21.775Z,101142.75
2023-05-12T01:15:49.025Z,101135.78
2023-05-12T01:18:16.309Z,101131.56
2023-05-12T01:20:44.614Z,101142.06
2023-05-12T01:23:11.702Z,101144.97
2023-05-12T01:25:39.369Z,101143.13
2023-05-12T01:28:06.586Z,101144.06
2023-05-12T01:30:33.895Z,101141.22
2023-05-12T01:33:00.711Z,101136.97
2023-05-12T01:35:27.345Z,101146.81
2023-05-12T01:37:53.978Z,101137.13
2023-05-12T01:40:20.962Z,101140.72
2023-05-12T01:42:47.818Z,101146.97
2023-05-12T01:45:14.472Z,101141.88
2023-05-12T01:47:41.127Z,101152.31
2023-05-12T01:50:08.085Z,101147.19
2023-05-12T01:52:34.826Z,101152.59
2023-05-12T01:55:01.521Z,101143.69
2023-05-12T01:57:28.285Z,101154.34
2023-05-12T01:59:54.978Z,101150.91
2023-05-12T02:02:21.563Z,101152.78
2023-05-12T02:04:48.319Z,101152.91
2023-05-12T02:07:15.775Z,101153.09
2023-05-12T02:09:42.429Z,101153.78
2023-05-12T02:12:09.190Z,101157.44
2023-05-12T02:14:35.841Z,101162.84
2023-05-12T02:17:02.667Z,101165.63
2023-05-12T02:19:29.284Z,101171.00
2023-05-12T02:21:55.937Z,101163.97
2023-05-12T02:24:22.594Z,101171.91
2023-05-12T02:26:49.248Z,101178.94
2023-05-12T02:29:16.730Z,101179.00
2023-05-12T02:31:43.376Z,101177.31
2023-05-12T02:34:10.029Z,101187.16
2023-05-12T02:36:36.660Z,101176.59
2023-05-12T02:39:03.373Z,101179.28
2023-05-12T02:41:30.044Z,101182.84
2023-05-12T02:43:56.775Z,101174.97
2023-05-12T02:46:23.564Z,101181.22
2023-05-12T02:48:50.308Z,101177.84
2023-05-12T02:51:16.967Z,101174.25
2023-05-12T02:53:43.599Z,101173.41
2023-05-12T02:56:10.371Z,101171.72
2023-05-12T02:58:37.296Z,101173.59
2023-05-12T03:01:10.582Z,101175.41
2023-05-12T03:03:38.346Z,101176.22
2023-05-12T03:06:06.299Z,101170.16
2023-05-12T03:08:33.168Z,101171.06
2023-05-12T03:11:00.484Z,101178.13
2023-05-12T03:13:27.225Z,101171.09
2023-05-12T03:15:54.463Z,101180.75
2023-05-12T03:18:21.298Z,101179.06
2023-05-12T03:20:48.076Z,101180.91
2023-05-12T03:23:14.695Z,101187.91
2023-05-12T03:25:41.351Z,101186.13
2023-05-12T03:28:08.090Z,101194.03
2023-05-12T03:30:34.739Z,101192.31
2023-05-12T03:33:01.764Z,101185.31
2023-05-12T03:35:28.506Z,101190.56
2023-05-12T03:37:55.173Z,101190.59
2023-05-12T03:40:21.999Z,101190.56
2023-05-12T03:42:48.865Z,101190.63
2023-05-12T03:45:15.570Z,101197.69
2023-05-12T03:47:42.547Z,101195.97
2023-05-12T03:50:09.720Z,101195.03
2023-05-12T03:52:38.557Z,101199.47
2023-05-12T03:55:07.083Z,101193.31
2023-05-12T03:57:36.420Z,101208.22
2023-05-12T04:00:04.982Z,101202.06
2023-05-12T04:02:31.792Z,101206.47
2023-05-12T04:04:58.589Z,101209.06
2023-05-12T04:07:26.517Z,101209.97
2023-05-12T04:09:53.131Z,101207.31
2023-05-12T04:12:19.794Z,101214.34
2023-05-12T04:14:46.601Z,101211.75
2023-05-12T04:17:13.318Z,101216.97
2023-05-12T04:19:40.003Z,101211.72
2023-05-12T04:22:06.706Z,101211.66
2023-05-12T04:24:33.419Z,101214.34
2023-05-12T04:27:00.574Z,101215.13
2023-05-12T04:29:27.571Z,101212.53
2023-05-12T04:31:55.542Z,101210.75
2023-05-12T04:34:22.270Z,101216.06
2023-05-12T04:36:48.953Z,101217.75
2023-05-12T04:39:15.624Z,101220.41
2023-05-12T04:41:42.281Z,101224.84
2023-05-12T04:44:08.950Z,101225.66
2023-05-12T04:46:36.070Z,101234.44
2023-05-12T04:49:02.820Z,101230.88
2023-05-12T04:51:29.486Z,101227.38
2023-05-12T04:53:56.287Z,101237.03
2023-05-12T04:56:23.527Z,101237.88
2023-05-12T04:58:50.189Z,101235.09
2023-05-12T05:01:16.861Z,101235.91
2023-05-12T05:03:43.839Z,101240.22
2023-05-12T05:06:10.782Z,101243.69
2023-05-12T05:08:37.429Z,101241.03
2023-05-12T05:11:04.399Z,101242.66
2023-05-12T05:13:31.341Z,101250.44
2023-05-12T05:16:02.427Z,101245.91
2023-05-12T05:18:29.392Z,101237.44
2023-05-12T05:20:58.639Z,101244.06
2023-05-12T05:23:26.571Z,101248.25
2023-05-12T05:29:11.864Z,101254.13
2023-05-12T05:31:38.891Z,101254.50
2023-05-12T05:34:05.603Z,101253.38
2023-05-12T05:36:32.277Z,101254.91
2023-05-12T05:38:59.007Z,101248.81
2023-05-12T05:41:25.667Z,101251.28
2023-05-12T05:43:52.305Z,101255.88
2023-05-12T05:46:19.047Z,101260.94
2023-05-12T05:48:45.686Z,101266.59
2023-05-12T05:51:12.429Z,101257.97
2023-05-12T05:53:39.088Z,101266.19
2023-05-12T05:56:05.916Z,101265.03
2023-05-12T05:58:32.540Z,101270.25
2023-05-12T06:01:00.444Z,101270.13
2023-05-12T06:03:27.381Z,101269.97
2023-05-12T06:05:54.163Z,101262.16
2023-05-12T06:08:20.853Z,101266.38
2023-05-12T06:10:47.594Z,101266.34
2023-05-12T06:13:14.293Z,101276.34
2023-05-12T06:15:41.002Z,101276.66
2023-05-12T06:18:07.782Z,101278.72
2023-05-12T06:20:34.526Z,101271.28
2023-05-12T06:23:01.212Z,101276.41
2023-05-12T06:25:28.035Z,101275.00
2023-05-12T06:27:54.839Z,101281.13
2023-05-12T06:30:21.561Z,101285.56
2023-05-12T06:32:48.273Z,101281.19
2023-05-12T06:35:15.097Z,101281.69
2023-05-12T06:37:41.723Z,101287.09
2023-05-12T06:40:12.120Z,101288.75
2023-05-12T06:42:38.774Z,101284.06
2023-05-12T06:45:06.451Z,101285.78
2023-05-12T06:47:33.695Z,101293.63
2023-05-12T06:50:00.500Z,101286.00
2023-05-12T06:52:27.173Z,101294.22
2023-05-12T06:54:53.805Z,101290.84
2023-05-12T06:57:20.492Z,101287.16
2023-05-12T06:59:47.199Z,101288.63
2023-05-12T07:02:13.784Z,101282.28
2023-05-12T07:04:40.895Z,101289.66
2023-05-12T07:07:07.609Z,101284.44
2023-05-12T07:09:34.369Z,101289.31
2023-05-12T07:12:01.495Z,101283.59
2023-05-12T07:14:28.235Z,101283.03
2023-05-12T07:17:00.357Z,101288.72
2023-05-12T07:19:30.352Z,101289.81
2023-05-12T07:22:00.235Z,101285.13
2023-05-12T07:24:31.645Z,101288.25
2023-05-12T07:27:03.621Z,101292.09
2023-05-12T07:29:30.454Z,101287.69
2023-05-12T07:32:01.756Z,101294.81
2023-05-12T07:34:28.644Z,101292.06
2023-05-12T07:36:55.626Z,101287.34
2023-05-12T07:39:23.973Z,101294.63
2023-05-12T07:41:53.641Z,101290.41
2023-05-12T07:44:26.954Z,101288.16
2023-05-12T07:46:54.546Z,101291.91
2023-05-12T07:49:27.405Z,101290.47
2023-05-12T07:51:54.265Z,101285.63
2023-05-12T07:54:21.115Z,101282.69
2023-05-12T07:56:50.596Z,101291.75
2023-05-12T07:59:24.103Z,101287.69
2023-05-12T08:01:56.975Z,101284.41
2023-05-12T08:04:27.021Z,101293.16
2023-05-12T08:06:53.965Z,101279.63
2023-05-12T08:09:24.690Z,101286.75
2023-05-12T08:11:55.066Z,101288.19
2023-05-12T08:14:30.787Z,101285.16
2023-05-12T08:17:07.879Z,101286.53
2023-05-12T08:19:39.373Z,101282.91
2023-05-12T08:22:09.799Z,101280.63
2023-05-12T08:24:42.482Z,101282.78
2023-05-12T08:27:14.613Z,101284.94
2023-05-12T08:29:45.015Z,101281.28
2023-05-12T08:32:12.534Z,101291.41
2023-05-12T08:34:48.673Z,101294.97
2023-05-12T08:37:21.888Z,101291.53
2023-05-12T08:39:49.396Z,101296.91
2023-05-12T08:42:44.063Z,101291.56
2023-05-12T08:45:14.103Z,101288.38
2023-05-12T08:47:46.718Z,101291.66
2023-05-12T08:50:14.454Z,101304.63
2023-05-12T08:52:41.261Z,101287.31
2023-05-12T08:55:09.666Z,101287.75
2023-05-12T08:57:38.196Z,101291.84
2023-05-12T09:00:08.829Z,101282.50
2023-05-12T09:02:51.304Z,101285.69
2023-05-12T09:05:20.632Z,101294.25
2023-05-12T09:07:48.948Z,101282.63
2023-05-12T09:10:33.673Z,101276.53
2023-05-12T09:13:15.058Z,101279.03
2023-05-12T09:15:44.640Z,101279.44
2023-05-12T09:18:12.484Z,101283.09
2023-05-12T09:20:39.216Z,101274.84
2023-05-12T09:23:19.509Z,101267.91
2023-05-12T09:25:49.515Z,101275.66
2023-05-12T09:28:16.233Z,101276.81
2023-05-12T09:30:43.025Z,101280.41
2023-05-12T09:33:13.644Z,101279.47
2023-05-12T09:35:45.813Z,101281.38
2023-05-12T09:38:14.060Z,101287.22
2023-05-12T09:40:41.072Z,101279.53
2023-05-12T09:43:11.185Z,101278.69
2023-05-12T09:45:39.171Z,101284.44
2023-05-12T09:48:11.017Z,101281.09
2023-05-12T09:50:51.299Z,101277.03
2023-05-12T09:53:19.417Z,101277.75
2023-05-12T09:55:47.666Z,101276.00
2023-05-12T09:58:19.825Z,101271.47
2023-05-12T10:03:17.914Z,101265.00
2023-05-12T10:05:54.575Z,101262.69
2023-05-12T10:08:44.404Z,101248.69
2023-05-12T10:11:11.695Z,101260.03
2023-05-12T10:13:38.786Z,101255.13
2023-05-12T10:16:06.689Z,101250.53
2023-05-12T10:18:33.745Z,101262.19
2023-05-12T10:21:01.248Z,101261.59
2023-05-12T10:23:28.161Z,101261.25
2023-05-12T10:26:01.991Z,101250.38
2023-05-12T10:28:29.595Z,101256.50
2023-05-12T10:30:58.018Z,101257.00
2023-05-12T10:33:25.310Z,101247.97
2023-05-12T10:35:52.771Z,101247.91
2023-05-12T10:38:22.420Z,101259.34
2023-05-12T10:40:54.330Z,101249.84
2023-05-12T10:43:28.742Z,101255.13
2023-05-12T10:46:17.175Z,101251.03
2023-05-12T10:48:56.135Z,101246.63
2023-05-12T10:51:30.368Z,101247.72
2023-05-12T10:53:58.692Z,101233.97
2023-05-12T10:56:30.797Z,101245.69
2023-05-12T10:59:17.986Z,101231.53
2023-05-12T11:02:01.705Z,101251.31
2023-05-12T11:04:41.469Z,101237.31
2023-05-12T11:07:10.193Z,101241.72
2023-05-12T11:09:52.224Z,101236.56
2023-05-12T11:12:26.540Z,101245.31
2023-05-12T11:14:53.647Z,101250.16
2023-05-12T11:17:20.593Z,101241.31
2023-05-12T11:19:48.795Z,101249.16
2023-05-12T11:22:20.378Z,101244.53
2023-05-12T11:24:47.949Z,101245.97
2023-05-12T11:27:16.497Z,101240.63
2023-05-12T11:29:44.059Z,101233.84
2023-05-12T11:32:12.573Z,101241.22
2023-05-12T11:34:39.656Z,101228.81
2023-05-12T11:37:09.288Z,101223.22
2023-05-12T11:39:36.496Z,101233.97
2023-05-12T11:42:13.038Z,101237.97
2023-05-12T11:44:48.562Z,101237.00
2023-05-12T11:47:16.741Z,101247.50
2023-05-12T11:49:52.114Z,101240.22
2023-05-12T11:52:20.340Z,101244.66
2023-05-12T11:54:51.962Z,101238.63
2023-05-12T11:57:33.715Z,101231.13
2023-05-12T12:00:09.138Z,101238.63
2023-05-12T12:02:37.449Z,101248.34
2023-05-12T12:05:06.443Z,101238.50
2023-05-12T12:07:36.021Z,101241.53
2023-05-12T12:10:16.753Z,101234.50
2023-05-12T12:12:43.998Z,101247.03
2023-05-12T12:15:11.214Z,101244.78
2023-05-12T12:17:40.101Z,101241.72
2023-05-12T12:20:08.061Z,101247.38
2023-05-12T12:22:35.305Z,101243.63
2023-05-12T12:25:02.813Z,101252.59
2023-05-12T12:27:29.686Z,101237.94
2023-05-12T12:29:56.401Z,101235.72
2023-05-12T12:32:23.209Z,101239.09
2023-05-12T12:34:49.893Z,101239.03
2023-05-12T12:37:17.265Z,101236.56
2023-05-12T12:39:44.100Z,101252.97
2023-05-12T12:42:10.762Z,101248.88
2023-05-12T12:44:37.481Z,101239.00
2023-05-12T12:47:05.086Z,101237.19
2023-05-12T12:49:31.786Z,101246.59
2023-05-12T12:51:58.486Z,101252.31
2023-05-12T12:54:27.331Z,101248.88
2023-05-12T12:56:55.357Z,101245.25
2023-05-12T12:59:22.042Z,101245.03
2023-05-12T13:01:48.871Z,101245.84
2023-05-12T13:04:15.554Z,101248.53
2023-05-12T13:06:42.180Z,101232.41
2023-05-12T13:09:09.135Z,101226.22
2023-05-12T13:11:35.854Z,101228.81
2023-05-12T13:14:04.297Z,101229.50
2023-05-12T13:16:31.654Z,101223.44
2023-05-12T13:18:58.719Z,101234.91
2023-05-12T13:21:25.547Z,101228.66
2023-05-12T13:23:52.215Z,101223.19
2023-05-12T13:26:19.011Z,101227.06
2023-05-12T13:28:45.836Z,101227.81
2023-05-12T13:31:12.565Z,101225.53
2023-05-12T13:33:39.337Z,101223.25
2023-05-12T13:36:06.396Z,101213.19
2023-05-12T13:38:33.945Z,101233.13
2023-05-12T13:41:00.629Z,101233.25
2023-05-12T13:43:27.298Z,101221.00
2023-05-12T13:45:54.075Z,101239.84
2023-05-12T13:48:20.877Z,101228.38
2023-05-12T13:50:47.787Z,101244.31
2023-05-12T13:53:14.450Z,101218.09
2023-05-12T13:55:41.411Z,101225.81
2023-05-12T13:58:08.078Z,101219.47
2023-05-12T14:00:35.003Z,101211.09
2023-05-12T14:03:01.796Z,101207.19
2023-05-12T14:05:29.048Z,101210.16
2023-05-12T14:07:55.832Z,101213.81
2023-05-12T14:10:22.458Z,101223.03
2023-05-12T14:12:49.369Z,101202.72
2023-05-12T14:17:45.732Z,101216.69
2023-05-12T14:20:12.756Z,101215.31
2023-05-12T14:22:39.474Z,101208.13
2023-05-12T14:25:06.750Z,101207.81
2023-05-12T14:27:33.487Z,101210.66
2023-05-12T14:30:00.266Z,101217.66
2023-05-12T14:32:27.254Z,101214.16
2023-05-12T14:34:53.982Z,101211.75
2023-05-12T14:37:20.681Z,101210.34
2023-05-12T14:39:47.371Z,101213.41
2023-05-12T14:42:14.151Z,101217.34
2023-05-12T14:44:40.882Z,101204.16
2023-05-12T14:47:09.096Z,101219.94
2023-05-12T14:49:36.138Z,101206.75
2023-05-12T14:52:03.125Z,101211.66
2023-05-12T14:54:29.747Z,101210.50
2023-05-12T14:56:56.682Z,101207.91
2023-05-12T14:59:23.411Z,101211.25
2023-05-12T15:01:50.490Z,101228.13
2023-05-12T15:04:17.175Z,101216.00
2023-05-12T15:06:43.917Z,101211.91
2023-05-12T15:09:10.848Z,101215.25
2023-05-12T15:11:37.811Z,101220.41
2023-05-12T15:14:05.035Z,101217.53
2023-05-12T15:16:33.185Z,101217.88
2023-05-12T15:18:59.950Z,101211.81
2023-05-12T15:21:26.640Z,101213.81
2023-05-12T15:23:53.263Z,101212.47
2023-05-12T15:28:49.517Z,101207.56
2023-05-12T15:31:16.234Z,101223.38
2023-05-12T15:33:42.952Z,101208.78
2023-05-12T15:36:11.449Z,101204.91
2023-05-12T15:38:38.216Z,101210.53
2023-05-12T15:41:05.072Z,101202.38
2023-05-12T15:43:31.836Z,101214.50
2023-05-12T15:45:58.517Z,101217.72
2023-05-12T15:48:25.349Z,101216.59
2023-05-12T15:50:51.953Z,101215.22
2023-05-12T15:53:18.598Z,101216.47
2023-05-12T15:55:45.231Z,101209.13
2023-05-12T15:58:12.476Z,101210.13
2023-05-12T16:00:40.323Z,101207.16
2023-05-12T16:03:07.130Z,101203.69
2023-05-12T16:05:38.755Z,101204.16
2023-05-12T16:08:05.470Z,101208.09
2023-05-12T16:10:32.189Z,101208.16
2023-05-12T16:12:58.857Z,101201.16
2023-05-12T16:15:25.512Z,101212.59
2023-05-12T16:17:52.190Z,101210.19
2023-05-12T16:20:19.141Z,101209.53
2023-05-12T16:22:45.900Z,101211.81
2023-05-12T16:25:12.530Z,101212.19
2023-05-12T16:27:39.162Z,101214.78
2023-05-12T16:30:06.880Z,101213.50
2023-05-12T16:32:33.495Z,101202.19
2023-05-12T16:35:00.888Z,101220.38
2023-05-12T16:37:27.894Z,101207.41
2023-05-12T16:39:54.547Z,101194.63
2023-05-12T16:42:21.260Z,101203.97
2023-05-12T16:44:47.906Z,101202.75
2023-05-12T16:47:14.645Z,101212.47
2023-05-12T16:49:41.285Z,101210.66
2023-05-12T16:52:08.777Z,101216.41
2023-05-12T16:54:36.584Z,101209.88
2023-05-12T16:57:03.592Z,101212.84
2023-05-12T16:59:32.426Z,101210.13
2023-05-12T17:02:00.054Z,101219.44
2023-05-12T17:04:26.945Z,101211.06
2023-05-12T17:06:53.649Z,101210.28
2023-05-12T17:09:21.069Z,101210.28
2023-05-12T17:11:47.740Z,101212.09
2023-05-12T17:14:14.389Z,101216.94
2023-05-12T17:16:41.103Z,101218.22
2023-05-12T17:21:38.490Z,101221.13
2023-05-12T17:24:05.530Z,101218.38
2023-05-12T17:26:32.215Z,101214.28
2023-05-12T17:29:00.474Z,101224.38
2023-05-12T17:31:27.576Z,101225.50
2023-05-12T17:33:54.238Z,101225.97
2023-05-12T17:36:20.886Z,101222.81
2023-05-12T17:38:47.572Z,101223.19
2023-05-12T17:41:14.346Z,101221.34
2023-05-12T17:43:41.430Z,101220.88
2023-05-12T17:46:09.126Z,101237.81
2023-05-12T17:48:35.914Z,101232.50
2023-05-12T17:51:03.381Z,101235.63
2023-05-12T17:53:31.341Z,101242.72
2023-05-12T17:55:58.355Z,101239.69
2023-05-12T17:58:25.089Z,101241.31
2023-05-12T18:00:51.869Z,101244.84
2023-05-12T18:03:23.368Z,101247.91
2023-05-12T18:05:59.407Z,101254.84
2023-05-12T18:08:27.219Z,101247.50
2023-05-12T18:10:54.000Z,101253.44
2023-05-12T18:13:20.718Z,101255.00
2023-05-12T18:15:48.786Z,101256.88
2023-05-12T18:18:15.469Z,101268.75
2023-05-12T18:20:42.369Z,101270.59
2023-05-12T18:23:09.171Z,101267.28
2023-05-12T18:25:36.065Z,101265.44
2023-05-12T18:28:02.874Z,101275.31
2023-05-12T18:30:29.581Z,101272.28
2023-05-12T18:32:56.370Z,101273.97
2023-05-12T18:35:23.624Z,101274.44
2023-05-12T18:37:50.573Z,101276.00
2023-05-12T18:40:17.274Z,101286.75
2023-05-12T18:42:44.070Z,101290.22
2023-05-12T18:45:11.261Z,101289.88
2023-05-12T18:47:38.075Z,101303.34
2023-05-12T18:50:05.435Z,101300.16
2023-05-12T18:52:32.033Z,101298.97
2023-05-12T18:54:58.717Z,101312.00
2023-05-12T18:57:25.337Z,101309.34
2023-05-12T18:59:52.030Z,101310.75
2023-05-12T19:02:18.612Z,101316.50
2023-05-12T19:04:45.637Z,101312.38
2023-05-12T19:07:15.660Z,101314.63
2023-05-12T19:09:43.436Z,101323.06
2023-05-12T19:12:11.781Z,101324.22
2023-05-12T19:14:39.118Z,101320.34
2023-05-12T19:17:06.613Z,101322.81
2023-05-12T19:19:33.636Z,101326.84
2023-05-12T19:22:00.491Z,101330.75
2023-05-12T19:24:27.357Z,101326.44
2023-05-12T19:26:54.127Z,101334.78
2023-05-12T19:29:20.926Z,101338.13
2023-05-12T19:31:48.122Z,101333.53
2023-05-12T19:34:14.944Z,101335.69
2023-05-12T19:36:41.694Z,101343.53
2023-05-12T19:39:08.354Z,101346.34
2023-05-12T19:41:35.082Z,101350.84
2023-05-12T19:44:01.943Z,101338.91
2023-05-12T19:46:29.338Z,101354.22
2023-05-12T19:48:56.043Z,101354.06
2023-05-12T19:51:22.722Z,101355.09
2023-05-12T19:53:49.478Z,101359.16
2023-05-12T19:56:16.469Z,101357.44
2023-05-12T19:58:43.124Z,101356.00
2023-05-12T20:01:12.454Z,101358.63
2023-05-12T20:03:39.284Z,101362.22
2023-05-12T20:06:06.296Z,101363.19
2023-05-12T20:08:33.095Z,101364.06
2023-05-12T20:10:59.786Z,101363.38
2023-05-12T20:13:28.071Z,101366.41
2023-05-12T20:15:55.082Z,101364.66
2023-05-12T20:18:23.727Z,101368.22
2023-05-12T20:20:50.850Z,101364.06
2023-05-12T20:23:17.548Z,101358.97
2023-05-12T20:25:44.356Z,101364.28
2023-05-12T20:28:11.794Z,101365.16
2023-05-12T20:30:38.623Z,101368.88
2023-05-12T20:33:05.537Z,101368.28
2023-05-12T20:35:32.370Z,101369.09
2023-05-12T20:37:59.320Z,101371.78
2023-05-12T20:40:26.046Z,101373.94
2023-05-12T20:42:52.856Z,101373.13
2023-05-12T20:45:19.927Z,101375.72
2023-05-12T20:47:46.866Z,101379.53
2023-05-12T20:50:13.614Z,101383.09
2023-05-12T20:52:41.138Z,101386.00
2023-05-12T20:55:09.169Z,101382.47
2023-05-12T20:57:36.132Z,101379.75
2023-05-12T21:00:02.840Z,101385.03
2023-05-12T21:02:32.503Z,101386.25
2023-05-12T21:04:59.208Z,101392.44
2023-05-12T21:07:25.911Z,101388.19
2023-05-12T21:09:53.551Z,101383.09
2023-05-12T21:12:20.354Z,101383.13
2023-05-12T21:14:47.107Z,101385.81
2023-05-12T21:17:17.343Z,101389.41
2023-05-12T21:19:44.188Z,101395.44
2023-05-12T21:22:11.011Z,101392.41
2023-05-12T21:24:39.380Z,101398.38
2023-05-12T21:27:06.986Z,101397.78
2023-05-12T21:29:34.513Z,101407.63
2023-05-12T21:32:01.779Z,101403.22
2023-05-12T21:34:28.657Z,101405.75
2023-05-12T21:36:55.413Z,101398.66
2023-05-12T21:39:22.141Z,101390.69
2023-05-12T21:41:49.024Z,101405.78
2023-05-12T21:44:16.239Z,101407.66
2023-05-12T21:46:43.306Z,101408.56
2023-05-12T21:49:10.342Z,101404.25
2023-05-12T21:51:37.036Z,101413.34
2023-05-12T21:54:03.973Z,101408.06
2023-05-12T21:56:30.676Z,101411.47
2023-05-12T21:58:57.376Z,101416.19
2023-05-12T22:01:24.105Z,101418.16
2023-05-12T22:03:51.306Z,101411.78
2023-05-12T22:06:18.204Z,101412.75
2023-05-12T22:08:44.867Z,101408.63
2023-05-12T22:11:11.753Z,101413.03
2023-05-12T22:13:38.454Z,101408.78
2023-05-12T22:16:05.400Z,101414.97
2023-05-12T22:18:33.419Z,101415.91
2023-05-12T22:21:00.356Z,101410.63
2023-05-12T22:23:27.061Z,101415.06
2023-05-12T22:25:53.757Z,101416.94
2023-05-12T22:28:20.511Z,101420.63
2023-05-12T22:30:47.262Z,101414.38
2023-05-12T22:33:14.009Z,101409.97
2023-05-12T22:35:40.656Z,101414.44
2023-05-12T22:38:07.316Z,101415.31
2023-05-12T22:40:36.179Z,101411.81
2023-05-12T22:43:02.908Z,101416.94
2023-05-12T22:45:29.568Z,101414.44
2023-05-12T22:47:56.159Z,101416.38
2023-05-12T22:50:23.767Z,101419.78
2023-05-12T22:52:52.782Z,101422.53
2023-05-12T22:55:19.491Z,101421.00
2023-05-12T22:57:46.449Z,101426.22
2023-05-12T23:00:15.581Z,101420.81
2023-05-12T23:02:42.252Z,101431.53
2023-05-12T23:05:09.678Z,101428.88
2023-05-12T23:07:36.317Z,101424.59
2023-05-12T23:10:03.143Z,101421.03
2023-05-12T23:12:29.763Z,101409.69
2023-05-12T23:14:56.433Z,101414.97
2023-05-12T23:17:25.430Z,101418.50
2023-05-12T23:19:53.495Z,101416.84
2023-05-12T23:22:20.261Z,101416.81
2023-05-12T23:24:47.081Z,101414.25
2023-05-12T23:27:13.886Z,101414.28
2023-05-12T23:29:40.853Z,101414.28
2023-05-12T23:32:07.815Z,101417.00
2023-05-12T23:34:34.504Z,101417.88
2023-05-12T23:37:01.104Z,101408.28
2023-05-12T23:39:27.818Z,101413.59
2023-05-12T23:41:54.460Z,101425.13
2023-05-12T23:44:21.065Z,101412.03
2023-05-12T23:46:47.878Z,101412.84
2023-05-12T23:49:14.876Z,101406.78
2023-05-12T23:51:41.576Z,101409.28
2023-05-12T23:54:08.426Z,101406.75
2023-05-12T23:56:35.154Z,101405.00
2023-05-12T23:59:04.468Z,101410.31
